createdAt,value
2022-10-06T00:01:39.322Z,87.14
2022-10-06T00:04:42.466Z,87.01
2022-10-06T00:07:45.666Z,86.73
2022-10-06T00:10:48.371Z,87.62
2022-10-06T00:13:51.371Z,87.85
2022-10-06T00:16:55.728Z,88.42
2022-10-06T00:19:58.643Z,88.52
2022-10-06T00:23:01.578Z,88.14
2022-10-06T00:26:04.484Z,88.25
2022-10-06T00:29:07.459Z,87.78
2022-10-06T00:32:11.907Z,87.67
2022-10-06T00:35:14.964Z,87.62
2022-10-06T00:38:18.346Z,88.16
2022-10-06T00:41:24.450Z,88.01
2022-10-06T00:44:27.358Z,88.39
2022-10-06T00:47:34.092Z,88.35
2022-10-06T00:50:37.665Z,88.46
2022-10-06T00:53:41.599Z,88.30
2022-10-06T00:56:45.400Z,88.53
2022-10-06T00:59:48.494Z,88.20
2022-10-06T01:02:57.827Z,88.27
2022-10-06T01:06:02.105Z,88.55
2022-10-06T01:09:04.999Z,88.91
2022-10-06T01:12:09.905Z,89.49
2022-10-06T01:15:13.433Z,89.62
2022-10-06T01:18:21.600Z,89.25
2022-10-06T01:21:31.962Z,89.02
2022-10-06T01:24:37.003Z,89.02
2022-10-06T01:27:44.202Z,89.70
2022-10-06T01:30:52.625Z,89.10
2022-10-06T01:33:56.268Z,89.36
2022-10-06T01:36:59.063Z,89.52
2022-10-06T01:40:03.186Z,90.00
2022-10-06T01:43:06.291Z,90.18
2022-10-06T01:46:09.109Z,90.37
2022-10-06T01:49:12.739Z,90.30
2022-10-06T01:52:15.831Z,90.32
2022-10-06T01:55:20.829Z,90.63
2022-10-06T01:58:25.077Z,90.46
2022-10-06T02:01:28.151Z,90.82
2022-10-06T02:04:33.783Z,90.29
2022-10-06T02:07:37.478Z,90.16
2022-10-06T02:10:41.722Z,89.91
2022-10-06T02:13:44.660Z,89.87
2022-10-06T02:16:47.565Z,89.61
2022-10-06T02:19:50.728Z,89.78
2022-10-06T02:22:53.855Z,90.31
2022-10-06T02:26:02.689Z,90.74
2022-10-06T02:29:05.806Z,90.47
2022-10-06T02:32:08.774Z,90.46
2022-10-06T02:35:13.565Z,90.60
2022-10-06T02:38:16.668Z,90.84
2022-10-06T02:41:21.236Z,91.04
2022-10-06T02:44:25.323Z,90.88
2022-10-06T02:47:28.316Z,90.91
2022-10-06T02:50:31.411Z,91.20
2022-10-06T02:53:34.493Z,91.82
2022-10-06T02:56:38.791Z,90.93
2022-10-06T02:59:42.922Z,90.95
2022-10-06T03:02:46.147Z,91.11
2022-10-06T03:05:49.534Z,90.84
2022-10-06T03:08:53.846Z,91.10
2022-10-06T03:11:58.033Z,91.58
2022-10-06T03:15:01.243Z,91.78
2022-10-06T03:18:04.178Z,91.25
2022-10-06T03:21:07.363Z,91.86
2022-10-06T03:24:12.425Z,92.00
2022-10-06T03:27:16.690Z,91.25
2022-10-06T03:30:19.471Z,91.58
2022-10-06T03:33:22.483Z,91.91
2022-10-06T03:36:27.067Z,92.13
2022-10-06T03:39:29.927Z,92.23
2022-10-06T03:42:34.095Z,92.33
2022-10-06T03:45:37.027Z,92.67
2022-10-06T03:48:40.180Z,93.24
2022-10-06T03:51:43.497Z,93.45
2022-10-06T03:54:46.219Z,93.21
2022-10-06T03:57:53.566Z,93.35
2022-10-06T04:01:00.984Z,94.21
2022-10-06T04:04:05.063Z,94.30
2022-10-06T04:07:08.054Z,94.57
2022-10-06T04:10:11.676Z,94.63
2022-10-06T04:13:18.406Z,95.10
2022-10-06T04:16:22.879Z,95.13
2022-10-06T04:19:26.107Z,95.84
2022-10-06T04:22:28.906Z,95.75
2022-10-06T04:25:31.883Z,96.14
2022-10-06T04:28:37.858Z,96.00
2022-10-06T04:31:42.505Z,95.74
2022-10-06T04:34:46.196Z,95.34
2022-10-06T04:37:49.850Z,95.09
2022-10-06T04:40:53.547Z,95.29
2022-10-06T04:43:58.841Z,95.64
2022-10-06T04:47:01.794Z,95.57
2022-10-06T04:50:07.539Z,96.26
2022-10-06T04:53:10.394Z,96.56
2022-10-06T04:56:15.799Z,96.86
2022-10-06T04:59:19.938Z,96.89
2022-10-06T05:02:22.936Z,97.32
2022-10-06T05:05:25.622Z,97.47
2022-10-06T05:08:28.851Z,97.50
2022-10-06T05:11:33.274Z,97.84
2022-10-06T05:14:37.999Z,97.36
2022-10-06T05:17:41.022Z,97.42
2022-10-06T05:20:44.366Z,97.29
2022-10-06T05:23:47.629Z,97.36
2022-10-06T05:26:50.324Z,97.62
2022-10-06T05:29:54.736Z,97.63
2022-10-06T05:32:57.523Z,97.73
2022-10-06T05:36:02.428Z,98.04
2022-10-06T05:39:05.508Z,97.94
2022-10-06T05:42:08.291Z,98.06
2022-10-06T05:45:12.621Z,98.18
2022-10-06T05:48:15.545Z,98.19
2022-10-06T05:51:19.842Z,97.94
2022-10-06T05:54:23.078Z,97.62
2022-10-06T05:57:25.934Z,97.69
2022-10-06T06:00:30.945Z,97.95
2022-10-06T06:03:33.653Z,97.90
2022-10-06T06:06:40.043Z,98.11
2022-10-06T06:09:43.136Z,98.33
2022-10-06T06:12:47.956Z,98.53
2022-10-06T06:16:06.105Z,98.40
2022-10-06T06:19:12.708Z,98.85
2022-10-06T06:22:15.591Z,99.00
2022-10-06T06:25:18.473Z,98.83
2022-10-06T06:28:21.608Z,99.13
2022-10-06T06:31:28.067Z,99.20
2022-10-06T06:34:31.138Z,99.18
2022-10-06T06:37:35.826Z,99.41
2022-10-06T06:40:41.744Z,99.38
2022-10-06T06:43:45.280Z,99.19
2022-10-06T06:46:49.732Z,98.64
2022-10-06T06:49:52.362Z,97.48
2022-10-06T06:52:55.173Z,95.87
2022-10-06T06:55:58.006Z,94.53
2022-10-06T06:59:00.640Z,93.78
2022-10-06T07:02:04.825Z,92.88
2022-10-06T07:05:08.500Z,92.65
2022-10-06T07:08:11.875Z,92.11
2022-10-06T07:11:16.157Z,91.97
2022-10-06T07:14:23.033Z,91.91
2022-10-06T07:17:46.105Z,91.69
2022-10-06T07:21:07.387Z,91.44
2022-10-06T07:24:30.281Z,91.01
2022-10-06T07:27:38.012Z,90.09
2022-10-06T07:30:42.931Z,89.31
2022-10-06T07:33:49.491Z,88.64
2022-10-06T07:53:09.024Z,89.35
2022-10-06T07:56:16.376Z,88.89
2022-10-06T07:59:21.655Z,89.39
2022-10-06T08:02:30.203Z,89.52
2022-10-06T08:05:39.681Z,89.77
2022-10-06T08:08:50.239Z,89.50
2022-10-06T08:11:57.985Z,88.53
2022-10-06T08:15:07.030Z,87.05
2022-10-06T08:18:27.528Z,86.62
2022-10-06T08:21:40.149Z,86.69
2022-10-06T08:25:04.820Z,87.20
2022-10-06T08:28:10.314Z,87.53
2022-10-06T08:31:16.467Z,88.11
2022-10-06T08:34:22.218Z,88.28
2022-10-06T08:37:28.907Z,85.45
2022-10-06T08:40:34.955Z,84.78
2022-10-06T08:43:40.149Z,83.95
2022-10-06T08:46:56.206Z,83.42
2022-10-06T08:50:01.437Z,83.64
2022-10-06T08:53:19.458Z,82.78
2022-10-06T08:56:31.103Z,81.25
2022-10-06T08:59:38.001Z,81.31
2022-10-06T09:02:48.143Z,79.09
2022-10-06T09:05:55.192Z,78.79
2022-10-06T09:09:08.500Z,78.66
2022-10-06T09:12:21.771Z,79.50
2022-10-06T09:15:35.581Z,79.08
2022-10-06T09:22:21.746Z,78.54
2022-10-06T09:25:30.118Z,77.48
2022-10-06T09:28:35.088Z,78.17
2022-10-06T09:31:42.710Z,78.30
2022-10-06T09:34:52.486Z,77.85
2022-10-06T09:37:59.183Z,77.30
2022-10-06T09:41:06.980Z,75.52
2022-10-06T09:57:16.633Z,77.29
2022-10-06T10:00:28.968Z,75.30
2022-10-06T10:04:18.942Z,74.06
2022-10-06T10:07:25.526Z,73.73
2022-10-06T10:10:30.649Z,73.03
2022-10-06T10:13:45.874Z,73.43
2022-10-06T10:16:53.399Z,72.31
2022-10-06T10:19:59.226Z,72.08
2022-10-06T10:23:08.185Z,69.87
2022-10-06T10:26:28.071Z,70.29
2022-10-06T10:29:53.704Z,70.51
2022-10-06T10:33:05.826Z,69.99
2022-10-06T10:36:16.370Z,69.67
2022-10-06T10:39:31.945Z,69.30
2022-10-06T10:42:42.061Z,67.76
2022-10-06T10:45:52.218Z,68.72
2022-10-06T10:49:02.563Z,68.18
2022-10-06T10:52:14.795Z,67.97
2022-10-06T10:55:27.771Z,67.85
2022-10-06T10:58:37.427Z,68.13
2022-10-06T11:01:49.232Z,67.15
2022-10-06T11:04:58.560Z,66.49
2022-10-06T11:08:13.001Z,66.42
2022-10-06T11:11:26.259Z,66.31
2022-10-06T11:14:46.322Z,65.77
2022-10-06T11:17:51.880Z,66.24
2022-10-06T11:21:00.918Z,63.82
2022-10-06T11:24:15.526Z,61.86
2022-10-06T11:27:37.873Z,61.44
2022-10-06T11:30:54.255Z,61.09
2022-10-06T11:34:01.300Z,62.34
2022-10-06T11:37:17.273Z,62.75
2022-10-06T11:40:40.029Z,61.42
2022-10-06T11:43:50.111Z,61.06
2022-10-06T11:46:55.441Z,60.46
2022-10-06T11:50:00.763Z,60.83
2022-10-06T11:53:04.580Z,60.28
2022-10-06T11:56:38.291Z,62.54
2022-10-06T11:59:41.426Z,63.35
2022-10-06T12:02:46.227Z,65.40
2022-10-06T12:05:56.144Z,60.10
2022-10-06T12:08:59.632Z,59.36
2022-10-06T12:12:12.699Z,59.46
2022-10-06T12:18:56.476Z,58.92
2022-10-06T12:22:09.720Z,59.00
2022-10-06T12:25:20.770Z,59.54
2022-10-06T12:28:33.916Z,60.52
2022-10-06T12:31:47.615Z,60.72
2022-10-06T12:35:04.327Z,60.27
2022-10-06T12:38:44.129Z,60.65
2022-10-06T12:41:58.808Z,61.74
2022-10-06T12:45:01.834Z,61.84
2022-10-06T12:48:08.049Z,62.58
2022-10-06T12:51:24.065Z,63.98
2022-10-06T12:54:34.889Z,63.10
2022-10-06T12:57:46.534Z,63.97
2022-10-06T13:00:49.358Z,61.88
2022-10-06T13:03:53.926Z,62.68
2022-10-06T13:06:56.682Z,61.87
2022-10-06T13:10:19.802Z,63.36
2022-10-06T13:13:24.571Z,63.22
2022-10-06T13:16:33.696Z,62.68
2022-10-06T13:19:50.156Z,61.41
2022-10-06T13:23:02.220Z,61.60
2022-10-06T13:26:17.014Z,60.21
2022-10-06T13:29:28.609Z,60.16
2022-10-06T13:32:32.149Z,59.78
2022-10-06T13:35:34.871Z,59.44
2022-10-06T13:38:39.116Z,59.00
2022-10-06T13:41:46.789Z,58.97
2022-10-06T13:44:57.442Z,58.94
2022-10-06T13:48:08.235Z,59.30
2022-10-06T13:51:17.424Z,60.48
2022-10-06T13:54:26.628Z,59.29
2022-10-06T13:57:39.156Z,59.83
2022-10-06T14:00:51.354Z,59.91
2022-10-06T14:19:47.002Z,57.58
2022-10-06T14:22:49.702Z,55.59
2022-10-06T14:25:52.367Z,54.44
2022-10-06T14:28:55.273Z,50.64
2022-10-06T14:32:19.427Z,51.08
2022-10-06T14:35:36.039Z,51.71
2022-10-06T14:38:40.410Z,51.08
2022-10-06T14:41:43.120Z,52.89
2022-10-06T14:44:46.061Z,54.13
2022-10-06T14:48:00.512Z,57.17
2022-10-06T14:51:07.262Z,58.84
2022-10-06T14:54:21.397Z,58.92
2022-10-06T14:57:34.533Z,60.12
2022-10-06T15:00:43.517Z,61.10
2022-10-06T15:04:03.416Z,61.43
2022-10-06T15:07:23.627Z,62.95
2022-10-06T15:10:30.690Z,63.97
2022-10-06T15:13:37.143Z,64.62
2022-10-06T15:16:44.538Z,65.15
2022-10-06T15:19:58.799Z,66.40
2022-10-06T15:23:01.645Z,66.65
2022-10-06T15:26:21.766Z,67.90
2022-10-06T15:29:24.853Z,67.34
2022-10-06T15:32:27.506Z,67.86
2022-10-06T15:35:32.953Z,68.65
2022-10-06T15:38:37.546Z,69.02
2022-10-06T15:41:42.756Z,69.01
2022-10-06T15:44:45.780Z,67.96
2022-10-06T15:47:52.796Z,66.92
2022-10-06T15:50:58.075Z,68.83
2022-10-06T15:54:00.720Z,67.86
2022-10-06T15:57:05.587Z,66.60
2022-10-06T16:00:09.250Z,68.06
2022-10-06T16:03:25.783Z,68.54
2022-10-06T16:06:41.563Z,69.33
2022-10-06T16:09:46.485Z,71.24
2022-10-06T16:12:49.143Z,73.39
2022-10-06T16:15:54.989Z,74.73
2022-10-06T16:18:57.723Z,76.04
2022-10-06T16:22:02.897Z,76.61
2022-10-06T16:25:06.230Z,77.51
2022-10-06T16:28:08.870Z,78.29
2022-10-06T16:31:11.534Z,78.58
2022-10-06T16:34:15.042Z,79.16
2022-10-06T16:37:19.050Z,79.70
2022-10-06T16:40:22.962Z,80.03
2022-10-06T16:43:30.508Z,80.25
2022-10-06T16:46:33.700Z,80.67
2022-10-06T16:49:36.328Z,81.23
2022-10-06T16:52:40.734Z,81.56
2022-10-06T16:55:43.654Z,81.87
2022-10-06T16:58:48.438Z,81.99
2022-10-06T17:01:51.706Z,82.30
2022-10-06T17:04:54.386Z,82.04
2022-10-06T17:07:59.212Z,82.90
2022-10-06T17:11:04.246Z,83.68
2022-10-06T17:14:06.888Z,83.50
2022-10-06T17:17:09.732Z,83.40
2022-10-06T17:20:13.874Z,82.99
2022-10-06T17:23:17.851Z,83.89
2022-10-06T17:26:22.250Z,84.56
2022-10-06T17:29:26.567Z,84.67
2022-10-06T17:32:29.262Z,84.76
2022-10-06T17:35:31.997Z,85.42
2022-10-06T17:38:41.742Z,85.13
2022-10-06T17:41:46.555Z,85.29
2022-10-06T17:44:54.591Z,84.82
2022-10-06T17:48:03.661Z,84.81
2022-10-06T17:51:09.600Z,84.49
2022-10-06T17:54:36.462Z,84.57
2022-10-06T17:57:56.816Z,85.22
2022-10-06T18:01:05.329Z,85.44
2022-10-06T18:04:31.387Z,85.05
2022-10-06T18:08:05.262Z,84.86
2022-10-06T18:11:35.857Z,84.93
2022-10-06T18:14:38.563Z,84.50
2022-10-06T18:17:42.286Z,84.49
2022-10-06T18:20:46.116Z,84.70
2022-10-06T18:23:53.349Z,83.90
2022-10-06T18:27:16.094Z,83.85
2022-10-06T18:30:59.023Z,83.03
2022-10-06T18:37:29.401Z,83.16
2022-10-06T18:44:09.383Z,83.24
2022-10-06T18:47:32.305Z,82.82
2022-10-06T18:50:35.200Z,82.79
2022-10-06T18:53:45.647Z,82.54
2022-10-06T18:56:49.922Z,83.05
2022-10-06T18:59:54.249Z,82.92
2022-10-06T19:02:57.008Z,83.38
2022-10-06T19:06:00.102Z,83.65
2022-10-06T19:09:04.526Z,83.36
2022-10-06T19:12:20.223Z,83.17
2022-10-06T19:15:24.279Z,82.69
2022-10-06T19:18:38.163Z,82.68
2022-10-06T19:21:42.219Z,83.35
2022-10-06T19:24:48.273Z,83.34
2022-10-06T19:27:51.072Z,83.73
2022-10-06T19:30:59.492Z,83.91
2022-10-06T19:34:04.210Z,83.93
2022-10-06T19:37:07.263Z,84.52
2022-10-06T19:40:11.263Z,84.83
2022-10-06T19:43:13.158Z,84.94
2022-10-06T19:46:17.457Z,85.58
2022-10-06T19:49:23.589Z,86.06
2022-10-06T19:52:26.613Z,85.84
2022-10-06T19:55:29.417Z,85.93
2022-10-06T19:58:32.808Z,85.93
2022-10-06T20:01:36.792Z,86.36
2022-10-06T20:04:40.097Z,86.36
2022-10-06T20:07:45.253Z,86.46
2022-10-06T20:10:48.136Z,86.63
2022-10-06T20:13:51.617Z,86.69
2022-10-06T20:16:57.417Z,86.43
2022-10-06T20:20:00.279Z,86.83
2022-10-06T20:23:03.119Z,87.54
2022-10-06T20:26:11.168Z,86.99
2022-10-06T20:29:15.621Z,86.86
2022-10-06T20:32:19.618Z,86.66
2022-10-06T20:35:22.328Z,86.52
2022-10-06T20:38:45.058Z,86.78
2022-10-06T20:41:46.798Z,87.03
2022-10-06T20:44:49.414Z,87.68
2022-10-06T20:47:53.387Z,87.70
2022-10-06T20:51:27.618Z,88.00
2022-10-06T20:54:34.869Z,88.19
2022-10-06T20:57:37.791Z,88.55
2022-10-06T21:00:41.102Z,88.77
2022-10-06T21:03:46.560Z,89.22
2022-10-06T21:06:50.808Z,89.30
2022-10-06T21:09:53.928Z,89.17
2022-10-06T21:12:56.496Z,89.34
2022-10-06T21:15:59.817Z,89.67
2022-10-06T21:19:04.863Z,90.28
2022-10-06T21:22:07.603Z,90.09
2022-10-06T21:25:10.565Z,90.35
2022-10-06T21:28:14.284Z,90.61
2022-10-06T21:31:18.550Z,90.84
2022-10-06T21:34:22.632Z,90.61
2022-10-06T21:37:25.227Z,90.59
2022-10-06T21:40:27.833Z,91.00
2022-10-06T21:43:30.517Z,91.13
2022-10-06T21:46:35.311Z,91.30
2022-10-06T21:49:39.601Z,91.13
2022-10-06T21:52:42.192Z,90.97
2022-10-06T21:55:44.942Z,91.21
2022-10-06T21:58:51.685Z,92.21
2022-10-06T22:01:54.318Z,91.94
2022-10-06T22:04:58.312Z,92.21
2022-10-06T22:08:01.039Z,92.20
2022-10-06T22:11:05.280Z,92.08
2022-10-06T22:14:09.436Z,91.99
2022-10-06T22:17:12.299Z,91.71
2022-10-06T22:20:16.652Z,91.87
2022-10-06T22:23:19.475Z,91.83
2022-10-06T22:26:22.461Z,91.45
2022-10-06T22:29:25.227Z,91.64
2022-10-06T22:32:27.843Z,91.58
2022-10-06T22:35:31.868Z,91.59
2022-10-06T22:38:35.368Z,91.58
2022-10-06T22:41:38.419Z,91.73
2022-10-06T22:44:41.015Z,91.73
2022-10-06T22:47:43.793Z,92.02
2022-10-06T22:50:48.732Z,92.13
2022-10-06T22:53:57.264Z,92.08
2022-10-06T22:57:00.742Z,91.72
2022-10-06T23:00:03.379Z,91.74
2022-10-06T23:03:06.174Z,91.60
2022-10-06T23:06:12.980Z,91.97
2022-10-06T23:09:15.804Z,91.70
2022-10-06T23:12:18.403Z,91.75
2022-10-06T23:15:21.156Z,91.93
2022-10-06T23:18:23.776Z,91.98
2022-10-06T23:21:28.047Z,92.10
2022-10-06T23:24:30.664Z,92.32
2022-10-06T23:27:33.588Z,92.11
2022-10-06T23:30:36.914Z,92.16
2022-10-06T23:33:39.871Z,92.38
2022-10-06T23:36:43.833Z,92.30
2022-10-06T23:39:46.444Z,92.32
2022-10-06T23:42:49.235Z,92.46
2022-10-06T23:45:52.094Z,92.88
2022-10-06T23:48:54.735Z,93.08
2022-10-06T23:51:58.685Z,92.70
2022-10-06T23:55:01.288Z,93.12
2022-10-06T23:58:03.908Z,93.21
